Terminal Aerodrome Forecast
Issued by NWS Cleveland, OH

Home | Current Version | Previous Version | Graphics & Text | Print | Product List | Glossary On
Versions: 1 2 3 4 5 6 7 8 9 10 11 12 13 14
000
FTUS41 KCLE 012024 AAA
TAFERI
TAF AMD
KERI 012024Z 0120/0218 26010KT P6SM FEW015
     FM020400 28004KT P6SM BKN035
     FM020900 VRB03KT 5SM BR BKN020
     FM021400 05005KT P6SM BKN035=

USA.gov is the U.S. government's official web portal to all federal, state and local government web resources and services.